Time;durP1;ratioP1;P1;durP2;ratioP2;P2;SDS_P1;SDS_P2;PMS_P1;PMS_P2;Temp;Humidity;BMP_temperature;BMP_pressure;BME280_temperature;BME280_humidity;BME280_pressure;Samples;Min_cycle;Max_cycle;Signal;HPM_P1;HPM_P2
2021/12/18 00:00:34;;;;;;;18.15;8.27;;;8.70;99.50;;;;;;5025351;28;20026;-51
2021/12/18 00:03:00;;;;;;;19.35;8.10;;;8.70;99.50;;;;;;5026780;28;20039;-50
2021/12/18 00:05:25;;;;;;;21.63;8.60;;;8.70;99.50;;;;;;5026282;28;20021;-50
2021/12/18 00:07:51;;;;;;;19.90;8.23;;;8.70;99.50;;;;;;5025869;28;20374;-50
2021/12/18 00:10:20;;;;;;;26.05;9.55;;;8.70;99.50;;;;;;5023631;28;20347;-50
2021/12/18 00:12:50;;;;;;;23.00;8.82;;;8.70;99.50;;;;;;5024857;28;20108;-51
2021/12/18 00:15:21;;;;;;;21.90;8.73;;;8.80;99.50;;;;;;5023532;28;20462;-51
2021/12/18 00:17:47;;;;;;;20.02;9.55;;;8.70;99.50;;;;;;5024737;28;20026;-50
2021/12/18 00:20:15;;;;;;;27.23;9.80;;;8.70;99.50;;;;;;5024886;28;20466;-50
2021/12/18 00:22:41;;;;;;;20.27;8.45;;;8.70;99.50;;;;;;5023669;28;20033;-50
2021/12/18 00:25:07;;;;;;;21.45;10.07;;;8.70;99.50;;;;;;5024485;28;20018;-50
2021/12/18 00:27:33;;;;;;;21.25;9.48;;;8.70;99.40;;;;;;5025313;28;20032;-50
2021/12/18 00:29:59;;;;;;;17.02;8.45;;;8.70;99.50;;;;;;5024389;28;20017;-50
2021/12/18 00:32:25;;;;;;;24.33;8.90;;;8.70;99.50;;;;;;5025088;28;20407;-50
2021/12/18 00:34:50;;;;;;;23.50;9.68;;;8.70;99.50;;;;;;5025238;28;20107;-50
2021/12/18 00:37:16;;;;;;;14.23;7.80;;;8.70;99.50;;;;;;5022952;28;20045;-50
2021/12/18 00:39:52;;;;;;;17.35;8.18;;;8.70;99.50;;;;;;5026040;28;20057;-50
2021/12/18 00:42:37;;;;;;;19.73;8.90;;;8.70;99.50;;;;;;5022422;28;20435;-50
2021/12/18 00:45:11;;;;;;;18.60;8.45;;;8.70;99.50;;;;;;5024626;28;20035;-50
2021/12/18 00:47:37;;;;;;;15.30;8.05;;;8.70;99.40;;;;;;5025791;28;20057;-50
2021/12/18 00:50:08;;;;;;;17.52;8.32;;;8.70;99.50;;;;;;5027010;28;20052;-50
2021/12/18 00:52:34;;;;;;;16.33;8.52;;;8.70;99.50;;;;;;5021864;28;20036;-50
2021/12/18 00:55:00;;;;;;;20.60;8.75;;;8.70;99.50;;;;;;5026378;28;20033;-50
2021/12/18 00:57:25;;;;;;;18.40;8.63;;;8.70;99.40;;;;;;5025211;28;20030;-50
2021/12/18 00:59:53;;;;;;;19.33;8.80;;;8.70;99.50;;;;;;5024345;28;20029;-50
2021/12/18 01:02:19;;;;;;;22.38;8.98;;;8.70;99.50;;;;;;5022852;28;20490;-50
2021/12/18 01:04:45;;;;;;;16.63;8.73;;;8.70;99.50;;;;;;5024111;28;20029;-50
2021/12/18 01:07:11;;;;;;;19.88;9.60;;;8.70;99.40;;;;;;5022094;28;20410;-50
2021/12/18 01:12:11;;;;;;;14.70;7.70;;;8.70;99.40;;;;;;5023484;28;20058;-50
2021/12/18 01:25:05;;;;;;;18.20;8.95;;;8.60;99.30;;;;;;5035009;28;20051;-50
2021/12/18 01:27:31;;;;;;;22.45;9.57;;;8.70;99.40;;;;;;5038511;28;20614;-50
2021/12/18 01:29:56;;;;;;;22.05;9.05;;;8.60;99.40;;;;;;5038989;28;20111;-50
2021/12/18 01:32:24;;;;;;;20.35;9.57;;;8.60;99.30;;;;;;5040029;28;20029;-50
2021/12/18 01:34:49;;;;;;;22.58;8.13;;;8.60;99.30;;;;;;5034651;28;20048;-50
2021/12/18 01:37:15;;;;;;;17.02;8.50;;;8.60;99.30;;;;;;5036239;28;20032;-50
2021/12/18 01:39:42;;;;;;;16.48;7.82;;;8.60;99.40;;;;;;5036672;28;20028;-50
2021/12/18 01:52:53;;;;;;;20.77;8.30;;;8.60;99.40;;;;;;5033459;28;20122;-50
2021/12/18 01:55:27;;;;;;;14.60;7.78;;;8.60;99.40;;;;;;5026763;28;20079;-50
2021/12/18 01:57:52;;;;;;;17.52;8.75;;;8.60;99.30;;;;;;5035477;28;20032;-50
2021/12/18 02:00:22;;;;;;;20.85;7.68;;;8.60;99.30;;;;;;5040003;28;20075;-50
2021/12/18 02:02:47;;;;;;;17.35;8.15;;;8.60;99.40;;;;;;5040668;28;20100;-50
2021/12/18 02:05:13;;;;;;;21.25;9.32;;;8.60;99.30;;;;;;5040601;28;20757;-50
2021/12/18 02:07:40;;;;;;;15.52;7.50;;;8.60;99.30;;;;;;5031117;28;20525;-51
2021/12/18 02:10:10;;;;;;;16.98;7.97;;;8.60;99.30;;;;;;5037586;28;20178;-50
2021/12/18 02:12:57;;;;;;;20.00;8.48;;;8.60;99.30;;;;;;5035546;28;20067;-50
2021/12/18 02:21:06;;;;;;;17.88;8.13;;;8.60;99.10;;;;;;5041255;28;20051;-50
2021/12/18 02:23:37;;;;;;;18.83;7.82;;;8.60;99.30;;;;;;5032473;28;20092;-50
2021/12/18 02:26:02;;;;;;;21.48;9.18;;;8.60;99.20;;;;;;5039596;28;20113;-50
2021/12/18 02:28:28;;;;;;;20.10;8.93;;;8.60;99.60;;;;;;5033780;28;20105;-51
2021/12/18 02:30:56;;;;;;;20.70;10.30;;;8.60;99.30;;;;;;5039733;28;20435;-50
2021/12/18 02:33:22;;;;;;;16.65;8.63;;;8.60;99.10;;;;;;5041823;28;20025;-50
2021/12/18 02:35:51;;;;;;;19.60;8.93;;;8.60;99.20;;;;;;5037360;28;20128;-50
2021/12/18 02:38:31;;;;;;;18.23;8.48;;;8.60;99.20;;;;;;5035285;28;20056;-50
2021/12/18 02:43:30;;;;;;;17.10;7.50;;;8.60;99.10;;;;;;5036992;28;20115;-50
2021/12/18 02:45:59;;;;;;;18.70;8.50;;;8.60;99.20;;;;;;5039032;28;20117;-50
2021/12/18 02:48:28;;;;;;;21.83;9.48;;;8.60;99.20;;;;;;5038052;28;20024;-50
2021/12/18 02:50:56;;;;;;;20.58;9.63;;;8.60;99.20;;;;;;5036372;28;20113;-50
2021/12/18 02:53:22;;;;;;;17.55;8.10;;;8.60;99.20;;;;;;5035143;28;20344;-50
2021/12/18 02:55:54;;;;;;;21.90;7.85;;;8.60;99.10;;;;;;5041020;28;20040;-50
2021/12/18 02:58:20;;;;;;;22.83;10.02;;;8.60;99.20;;;;;;5040044;28;20030;-50
2021/12/18 03:00:45;;;;;;;21.63;9.13;;;8.60;99.20;;;;;;5031832;28;20048;-50
2021/12/18 03:03:14;;;;;;;21.77;8.85;;;8.50;99.10;;;;;;5038272;28;20028;-50
2021/12/18 03:05:48;;;;;;;24.38;9.48;;;8.50;99.10;;;;;;5041126;28;20031;-50
2021/12/18 03:08:21;;;;;;;21.27;8.90;;;8.50;99.10;;;;;;5034199;28;20038;-50
2021/12/18 03:22:17;;;;;;;27.00;9.05;;;8.50;99.10;;;;;;5039418;28;20068;-50
2021/12/18 03:26:47;;;;;;;21.70;8.57;;;8.50;99.20;;;;;;5038904;28;20040;-50
2021/12/18 03:29:13;;;;;;;19.00;8.70;;;8.50;99.20;;;;;;5039151;28;20059;-50
2021/12/18 03:31:38;;;;;;;24.77;9.13;;;8.50;99.20;;;;;;5035700;28;20026;-50
2021/12/18 03:34:04;;;;;;;22.27;9.00;;;8.50;99.10;;;;;;5041439;28;20031;-50
2021/12/18 03:36:30;;;;;;;24.27;9.90;;;8.50;99.20;;;;;;5037793;28;20436;-50
2021/12/18 03:38:55;;;;;;;24.58;11.13;;;8.50;99.10;;;;;;5034057;28;20029;-50
2021/12/18 03:41:21;;;;;;;29.35;12.35;;;8.50;98.90;;;;;;5036479;28;20035;-50
2021/12/18 03:43:47;;;;;;;17.40;7.47;;;8.50;99.00;;;;;;5038933;28;20024;-50
2021/12/18 03:46:12;;;;;;;21.17;9.52;;;8.50;99.10;;;;;;5040451;28;20061;-50
2021/12/18 03:48:38;;;;;;;21.92;9.45;;;8.50;99.10;;;;;;5043270;28;20248;-50
2021/12/18 03:51:04;;;;;;;19.70;8.35;;;8.50;99.00;;;;;;5033606;28;20151;-50
2021/12/18 03:53:29;;;;;;;19.88;8.35;;;8.50;99.10;;;;;;5034281;28;20088;-50
2021/12/18 03:55:55;;;;;;;22.60;10.25;;;8.50;99.10;;;;;;5039376;28;20530;-50
2021/12/18 03:58:21;;;;;;;21.98;9.55;;;8.50;98.90;;;;;;5044982;28;20359;-49
2021/12/18 04:00:46;;;;;;;19.02;8.75;;;8.50;99.10;;;;;;5037870;28;20423;-50
2021/12/18 04:03:12;;;;;;;25.55;8.88;;;8.40;99.10;;;;;;5038715;28;20264;-50
2021/12/18 04:05:38;;;;;;;16.23;8.18;;;8.50;99.10;;;;;;5043450;28;20048;-50
2021/12/18 04:08:10;;;;;;;19.55;9.30;;;8.50;99.10;;;;;;5042307;28;20060;-51
2021/12/18 04:10:40;;;;;;;20.88;9.10;;;8.50;99.00;;;;;;5035448;28;20465;-51
2021/12/18 04:13:08;;;;;;;19.35;8.27;;;8.50;99.10;;;;;;5038169;28;20078;-50
2021/12/18 04:15:36;;;;;;;18.40;7.88;;;8.50;99.20;;;;;;5040922;28;20379;-50
2021/12/18 04:18:01;;;;;;;20.20;8.95;;;8.40;99.10;;;;;;5043266;28;20465;-50
2021/12/18 04:20:27;;;;;;;18.25;8.35;;;8.50;99.00;;;;;;5041273;28;20033;-51
2021/12/18 04:22:53;;;;;;;20.40;9.15;;;8.50;99.10;;;;;;5039085;28;20078;-50
2021/12/18 04:25:19;;;;;;;20.65;8.23;;;8.50;99.10;;;;;;5033543;28;20092;-50
2021/12/18 04:27:45;;;;;;;20.40;9.02;;;8.50;99.20;;;;;;5044600;28;20103;-50
2021/12/18 04:30:11;;;;;;;21.00;8.10;;;8.50;99.20;;;;;;5039960;28;20033;-50
2021/12/18 04:32:37;;;;;;;21.33;9.20;;;8.40;99.50;;;;;;5044176;28;20079;-50
2021/12/18 04:35:03;;;;;;;21.27;9.90;;;8.40;99.10;;;;;;5033828;28;20025;-50
2021/12/18 04:37:28;;;;;;;21.40;8.63;;;8.50;99.10;;;;;;5042267;28;20344;-50
2021/12/18 04:39:54;;;;;;;21.55;8.45;;;8.40;99.00;;;;;;5038829;28;20025;-50
2021/12/18 04:42:20;;;;;;;18.50;8.48;;;8.40;99.10;;;;;;5043119;28;20109;-50
2021/12/18 04:44:47;;;;;;;21.40;8.82;;;8.40;99.10;;;;;;5038313;28;20028;-50
2021/12/18 04:47:12;;;;;;;23.70;9.27;;;8.40;99.40;;;;;;5040624;28;20044;-50
2021/12/18 04:49:38;;;;;;;19.00;8.35;;;8.40;99.00;;;;;;5042755;28;20350;-50
2021/12/18 04:52:04;;;;;;;21.88;8.25;;;8.40;99.10;;;;;;5040640;28;20057;-50
2021/12/18 04:54:30;;;;;;;20.38;8.45;;;8.40;99.00;;;;;;5035856;28;20036;-50
2021/12/18 04:56:57;;;;;;;25.75;8.13;;;8.40;99.00;;;;;;5039138;28;20050;-50
2021/12/18 04:59:22;;;;;;;20.30;9.55;;;8.40;99.10;;;;;;5041013;28;20041;-50
2021/12/18 05:01:50;;;;;;;19.10;7.97;;;8.40;99.10;;;;;;5041424;28;20033;-51
2021/12/18 05:04:15;;;;;;;20.63;8.63;;;8.40;99.10;;;;;;5039203;28;20037;-51
2021/12/18 05:06:45;;;;;;;19.13;7.75;;;8.40;99.00;;;;;;5042613;28;20029;-50
2021/12/18 05:09:15;;;;;;;17.90;8.90;;;8.40;99.00;;;;;;5036998;28;20042;-50
2021/12/18 05:11:42;;;;;;;17.02;7.82;;;8.40;99.00;;;;;;5041949;28;20071;-51
2021/12/18 05:14:08;;;;;;;24.33;9.93;;;8.40;99.10;;;;;;5037544;28;20037;-51
2021/12/18 05:16:34;;;;;;;28.67;10.43;;;8.40;98.90;;;;;;5040318;28;20059;-50
2021/12/18 05:19:00;;;;;;;18.02;8.25;;;8.40;98.90;;;;;;5043590;28;20021;-50
2021/12/18 05:21:26;;;;;;;22.27;9.77;;;8.40;98.90;;;;;;5037611;28;20116;-50
2021/12/18 05:23:52;;;;;;;21.48;8.68;;;8.40;98.90;;;;;;5039319;28;20021;-50
2021/12/18 05:26:18;;;;;;;20.25;8.95;;;8.40;98.90;;;;;;5036534;28;20036;-50
2021/12/18 05:28:43;;;;;;;20.60;9.20;;;8.40;99.00;;;;;;5040853;28;20534;-50
2021/12/18 05:31:10;;;;;;;21.45;8.18;;;8.40;98.80;;;;;;5036315;28;20026;-50
2021/12/18 05:33:36;;;;;;;17.73;8.18;;;8.40;98.90;;;;;;5037801;28;20096;-50
2021/12/18 05:36:13;;;;;;;18.40;8.40;;;8.40;98.90;;;;;;5039886;28;20056;-49
2021/12/18 05:38:38;;;;;;;20.10;8.55;;;8.40;99.00;;;;;;5038723;28;20060;-50
2021/12/18 05:41:04;;;;;;;22.58;8.85;;;8.40;99.00;;;;;;5035894;28;20439;-50
2021/12/18 05:43:29;;;;;;;23.55;8.98;;;8.40;98.90;;;;;;5036370;28;20135;-50
2021/12/18 05:45:55;;;;;;;21.88;8.95;;;8.40;99.00;;;;;;5040884;28;20575;-50
2021/12/18 05:48:20;;;;;;;19.92;8.43;;;8.40;99.00;;;;;;5042035;28;20356;-50
2021/12/18 05:50:46;;;;;;;18.42;7.75;;;8.40;98.90;;;;;;5030572;28;20041;-50
2021/12/18 05:53:14;;;;;;;17.08;8.30;;;8.40;99.00;;;;;;5043280;28;20054;-50
2021/12/18 05:55:39;;;;;;;24.08;9.05;;;8.40;99.00;;;;;;5022505;28;20192;-50
2021/12/18 05:58:05;;;;;;;21.55;7.70;;;8.40;99.00;;;;;;5034772;28;20018;-50
2021/12/18 06:00:30;;;;;;;20.00;7.80;;;8.40;99.00;;;;;;5040664;28;20451;-50
2021/12/18 06:02:56;;;;;;;25.42;8.30;;;8.40;99.00;;;;;;5037399;28;20017;-50
2021/12/18 06:05:22;;;;;;;18.95;8.48;;;8.40;99.10;;;;;;5028252;28;20064;-50
2021/12/18 06:07:55;;;;;;;20.67;8.88;;;8.40;99.10;;;;;;5037315;28;20065;-49
2021/12/18 06:10:28;;;;;;;18.90;8.90;;;8.30;99.00;;;;;;5027490;28;20026;-50
2021/12/18 06:12:57;;;;;;;20.00;7.55;;;8.30;98.80;;;;;;5040704;28;20112;-50
2021/12/18 06:15:23;;;;;;;20.85;8.20;;;8.40;99.00;;;;;;5036532;28;20099;-49
2021/12/18 06:17:49;;;;;;;18.20;8.13;;;8.30;99.00;;;;;;5042462;28;20082;-49
2021/12/18 06:20:14;;;;;;;18.77;7.25;;;8.40;99.10;;;;;;5038837;28;20033;-49
2021/12/18 06:22:40;;;;;;;16.50;6.72;;;8.40;99.00;;;;;;5042648;28;20204;-50
2021/12/18 06:25:06;;;;;;;18.17;7.60;;;8.40;99.10;;;;;;5028130;28;20022;-49
2021/12/18 06:27:32;;;;;;;15.50;6.90;;;8.30;99.00;;;;;;5039868;28;20022;-49
2021/12/18 06:29:58;;;;;;;16.13;6.10;;;8.30;99.00;;;;;;5040223;28;20331;-49
2021/12/18 06:32:24;;;;;;;16.52;7.05;;;8.30;99.00;;;;;;5040817;28;20040;-49
2021/12/18 06:34:49;;;;;;;17.85;6.90;;;8.30;98.90;;;;;;5039700;28;20028;-49
2021/12/18 06:37:15;;;;;;;17.90;7.10;;;8.30;99.00;;;;;;5035870;28;20045;-50
2021/12/18 06:39:40;;;;;;;16.40;8.00;;;8.30;99.00;;;;;;5036972;28;20052;-49
2021/12/18 06:42:06;;;;;;;17.83;8.43;;;8.30;99.00;;;;;;5038725;28;20114;-49
2021/12/18 06:44:32;;;;;;;18.40;7.45;;;8.30;98.90;;;;;;5032713;28;20359;-49
2021/12/18 06:46:57;;;;;;;17.50;6.72;;;8.30;99.00;;;;;;5035587;28;20025;-50
2021/12/18 06:49:23;;;;;;;18.98;7.40;;;8.30;98.80;;;;;;5040229;28;20033;-50
2021/12/18 06:51:49;;;;;;;14.63;6.82;;;8.30;98.90;;;;;;5037465;28;20131;-49
2021/12/18 06:54:15;;;;;;;16.35;6.93;;;8.30;98.90;;;;;;5038091;28;20029;-49
2021/12/18 06:56:40;;;;;;;14.30;6.28;;;8.30;99.00;;;;;;5031326;28;20048;-49
2021/12/18 06:59:06;;;;;;;19.33;7.70;;;8.30;99.00;;;;;;5040794;28;20017;-50
2021/12/18 07:01:32;;;;;;;13.70;6.13;;;8.30;98.90;;;;;;5037320;28;20363;-49
2021/12/18 07:03:57;;;;;;;19.63;7.72;;;8.30;99.00;;;;;;5041641;28;20025;-49
2021/12/18 07:06:24;;;;;;;21.85;7.60;;;8.30;98.90;;;;;;5038074;28;20100;-50
2021/12/18 07:08:50;;;;;;;19.33;7.43;;;8.30;98.80;;;;;;5027972;28;20099;-50
2021/12/18 07:11:16;;;;;;;22.23;8.27;;;8.30;98.90;;;;;;5035112;28;20438;-50
2021/12/18 07:13:42;;;;;;;23.65;8.50;;;8.30;98.90;;;;;;5040385;28;20136;-50
2021/12/18 07:16:07;;;;;;;17.70;7.18;;;8.30;98.90;;;;;;5038137;28;20514;-50
2021/12/18 07:18:33;;;;;;;19.67;7.35;;;8.30;98.90;;;;;;5035297;28;20142;-50
2021/12/18 07:20:59;;;;;;;20.25;6.60;;;8.30;99.00;;;;;;5042012;28;20029;-50
2021/12/18 07:23:24;;;;;;;17.85;7.07;;;8.30;99.00;;;;;;5042110;28;20071;-49
2021/12/18 07:25:50;;;;;;;18.77;7.80;;;8.30;98.90;;;;;;5038133;28;20038;-50
2021/12/18 07:28:16;;;;;;;16.70;7.28;;;8.30;98.80;;;;;;5044377;28;20036;-50
2021/12/18 07:30:42;;;;;;;17.23;7.20;;;8.30;98.90;;;;;;5039369;28;20027;-50
2021/12/18 07:33:10;;;;;;;17.48;7.50;;;8.30;98.90;;;;;;5044264;28;20025;-50
2021/12/18 07:35:40;;;;;;;19.25;7.50;;;8.30;99.00;;;;;;5041996;28;20048;-50
2021/12/18 07:38:07;;;;;;;19.38;7.50;;;8.30;98.90;;;;;;5038171;28;20028;-50
2021/12/18 07:40:34;;;;;;;18.38;7.15;;;8.30;98.90;;;;;;5036831;28;20037;-50
2021/12/18 07:43:00;;;;;;;21.90;7.57;;;8.30;98.90;;;;;;5042770;28;20025;-49
2021/12/18 07:45:25;;;;;;;25.70;8.15;;;8.30;98.90;;;;;;5042852;28;20115;-50
2021/12/18 07:47:51;;;;;;;21.10;6.60;;;8.30;98.80;;;;;;5043240;28;20075;-50
2021/12/18 07:50:20;;;;;;;19.77;7.97;;;8.30;99.00;;;;;;5040779;28;20590;-49
2021/12/18 07:52:49;;;;;;;24.08;7.30;;;8.30;98.90;;;;;;5045100;28;20454;-50
2021/12/18 07:55:16;;;;;;;18.05;6.47;;;8.30;98.90;;;;;;5036398;28;20128;-50
2021/12/18 07:57:42;;;;;;;20.33;7.47;;;8.40;99.30;;;;;;5040706;28;20033;-50
2021/12/18 08:00:11;;;;;;;12.90;6.22;;;8.30;98.90;;;;;;5042851;28;20083;-50
2021/12/18 08:02:37;;;;;;;16.58;5.28;;;8.30;98.80;;;;;;5040414;28;20432;-50
2021/12/18 08:05:04;;;;;;;13.13;5.75;;;8.30;98.90;;;;;;5043898;28;20053;-50
2021/12/18 08:07:29;;;;;;;14.80;5.63;;;8.30;98.90;;;;;;5041341;28;20091;-49
2021/12/18 08:09:55;;;;;;;20.55;7.13;;;8.40;99.20;;;;;;5045398;28;20025;-50
2021/12/18 08:12:21;;;;;;;17.00;6.47;;;8.40;98.90;;;;;;5035536;28;20025;-50
2021/12/18 08:14:46;;;;;;;14.65;6.00;;;8.30;98.80;;;;;;5038272;28;20478;-51
2021/12/18 08:17:12;;;;;;;16.98;6.68;;;8.40;98.90;;;;;;5042628;28;20107;-49
2021/12/18 08:19:38;;;;;;;18.20;6.22;;;8.30;98.80;;;;;;5043459;28;20447;-50
2021/12/18 08:22:03;;;;;;;21.77;7.90;;;8.30;98.80;;;;;;5037596;28;20117;-50
2021/12/18 08:24:29;;;;;;;18.27;8.05;;;8.30;98.80;;;;;;5040596;28;20033;-50
2021/12/18 08:26:55;;;;;;;18.33;7.13;;;8.30;98.70;;;;;;5034460;28;20059;-50
2021/12/18 08:29:20;;;;;;;19.88;6.78;;;8.30;98.80;;;;;;5041409;28;20077;-50
2021/12/18 08:31:47;;;;;;;13.93;5.45;;;8.30;98.80;;;;;;5044242;28;20029;-50
2021/12/18 08:34:12;;;;;;;14.23;6.30;;;8.30;98.80;;;;;;5036335;28;20057;-50
2021/12/18 08:36:38;;;;;;;16.85;6.53;;;8.30;98.80;;;;;;5042169;28;20083;-50
2021/12/18 08:39:04;;;;;;;13.88;5.70;;;8.30;98.80;;;;;;5041386;28;20029;-49
2021/12/18 08:41:30;;;;;;;16.98;6.43;;;8.40;98.90;;;;;;5039848;28;20036;-50
2021/12/18 08:43:55;;;;;;;20.60;7.95;;;8.40;98.90;;;;;;5039199;28;20025;-50
2021/12/18 08:46:22;;;;;;;20.67;7.20;;;8.40;98.80;;;;;;5040353;28;20359;-50
2021/12/18 08:48:47;;;;;;;17.50;6.93;;;8.30;98.70;;;;;;5044706;28;20032;-50
2021/12/18 08:51:13;;;;;;;15.25;5.97;;;8.30;98.80;;;;;;5038431;28;20021;-50
2021/12/18 08:53:39;;;;;;;20.45;7.88;;;8.30;98.80;;;;;;5040256;28;20029;-50
2021/12/18 08:56:05;;;;;;;20.15;7.07;;;8.30;98.80;;;;;;5035322;28;20045;-50
2021/12/18 08:58:30;;;;;;;13.52;5.43;;;8.30;98.80;;;;;;5042402;28;20063;-51
2021/12/18 09:00:57;;;;;;;16.90;6.25;;;8.40;98.80;;;;;;5041722;28;20027;-51
2021/12/18 09:03:23;;;;;;;19.95;6.68;;;8.40;98.80;;;;;;5043227;28;20063;-50
2021/12/18 09:05:49;;;;;;;15.73;6.45;;;8.40;98.70;;;;;;5034542;28;20033;-50
2021/12/18 09:08:14;;;;;;;17.92;7.30;;;8.30;98.70;;;;;;5043533;28;20033;-50
2021/12/18 09:10:40;;;;;;;9.88;5.25;;;8.30;98.80;;;;;;5040467;28;20017;-50
2021/12/18 09:13:06;;;;;;;14.80;7.18;;;8.30;98.70;;;;;;5038411;28;20029;-50
2021/12/18 09:15:32;;;;;;;22.15;6.57;;;8.30;98.60;;;;;;5037265;28;20469;-50
2021/12/18 09:17:57;;;;;;;18.20;6.85;;;8.30;98.60;;;;;;5042201;28;20039;-50
2021/12/18 09:20:23;;;;;;;20.92;6.80;;;8.30;98.70;;;;;;5040677;28;20026;-50
2021/12/18 09:22:50;;;;;;;16.23;6.70;;;8.30;98.70;;;;;;5041221;28;20031;-50
2021/12/18 09:25:15;;;;;;;17.30;6.85;;;8.30;98.80;;;;;;5042119;28;20051;-50
2021/12/18 09:27:42;;;;;;;15.55;7.25;;;8.30;98.70;;;;;;5030033;28;20375;-50
2021/12/18 09:30:11;;;;;;;19.77;6.30;;;8.30;98.70;;;;;;5043410;28;20087;-51
2021/12/18 09:32:37;;;;;;;16.80;7.40;;;8.30;98.70;;;;;;5041341;28;20041;-50
2021/12/18 09:35:04;;;;;;;16.02;6.78;;;8.30;98.70;;;;;;5040838;28;20040;-50
2021/12/18 09:37:29;;;;;;;13.75;6.25;;;8.30;98.70;;;;;;5037656;28;20036;-50
2021/12/18 09:39:55;;;;;;;19.30;6.35;;;8.30;98.70;;;;;;5042408;28;20040;-50
2021/12/18 09:42:22;;;;;;;15.65;6.78;;;8.40;98.70;;;;;;5028706;28;20352;-50
2021/12/18 09:44:50;;;;;;;20.08;6.13;;;8.40;98.70;;;;;;5043044;28;20031;-50
2021/12/18 09:47:17;;;;;;;13.75;5.55;;;8.40;98.70;;;;;;5037717;28;20018;-51
2021/12/18 09:49:44;;;;;;;17.48;7.65;;;8.30;98.70;;;;;;5040694;28;20074;-50
2021/12/18 09:52:10;;;;;;;13.07;5.55;;;8.30;98.60;;;;;;5041089;28;20729;-50
2021/12/18 09:54:35;;;;;;;20.20;6.00;;;8.30;98.70;;;;;;5037984;28;20400;-50
2021/12/18 09:57:01;;;;;;;14.57;6.35;;;8.30;98.70;;;;;;5034023;28;20072;-50
2021/12/18 09:59:27;;;;;;;13.38;5.72;;;8.30;98.60;;;;;;5037442;28;20021;-50
2021/12/18 10:01:52;;;;;;;13.18;5.90;;;8.30;98.60;;;;;;5039179;28;20030;-50
2021/12/18 10:04:29;;;;;;;14.77;6.97;;;8.30;98.70;;;;;;5042070;28;20028;-50
2021/12/18 10:06:57;;;;;;;10.50;4.75;;;8.30;98.60;;;;;;5040410;28;20041;-50
2021/12/18 10:09:23;;;;;;;17.23;6.75;;;8.30;98.60;;;;;;5039961;28;20029;-50
2021/12/18 10:11:55;;;;;;;19.55;6.13;;;8.30;98.60;;;;;;5038600;28;20477;-50
2021/12/18 10:14:36;;;;;;;14.95;6.07;;;8.40;98.70;;;;;;5038653;28;20040;-50
2021/12/18 10:17:03;;;;;;;11.57;5.47;;;8.30;98.60;;;;;;5038599;28;20489;-50
2021/12/18 10:19:47;;;;;;;20.70;6.15;;;8.30;98.70;;;;;;5042164;28;20068;-50
2021/12/18 10:22:13;;;;;;;14.65;5.68;;;8.40;98.60;;;;;;5042577;28;20053;-50
2021/12/18 10:24:44;;;;;;;17.38;6.75;;;8.30;98.70;;;;;;5038941;28;20075;-50
2021/12/18 10:27:22;;;;;;;20.48;7.38;;;8.40;98.70;;;;;;5032165;28;20423;-50
2021/12/18 10:29:52;;;;;;;19.38;6.68;;;8.40;98.70;;;;;;5042202;28;20039;-50
2021/12/18 10:32:20;;;;;;;25.80;8.80;;;8.40;98.70;;;;;;5036143;28;20026;-50
2021/12/18 10:34:56;;;;;;;20.70;7.85;;;8.40;98.60;;;;;;5041399;28;20087;-50
2021/12/18 10:37:26;;;;;;;17.33;7.05;;;8.40;98.60;;;;;;5041727;28;20029;-50
2021/12/18 10:39:55;;;;;;;25.65;7.13;;;8.40;98.70;;;;;;5035398;28;20026;-50
2021/12/18 10:42:23;;;;;;;19.20;6.15;;;8.30;98.60;;;;;;5036327;28;20057;-50
2021/12/18 10:44:56;;;;;;;16.40;7.22;;;8.40;98.70;;;;;;5040352;28;20524;-50
2021/12/18 10:47:22;;;;;;;13.55;6.30;;;8.40;98.70;;;;;;5041897;28;20039;-50
2021/12/18 10:49:47;;;;;;;12.57;5.70;;;8.40;98.60;;;;;;5035931;28;20014;-50
2021/12/18 10:52:13;;;;;;;16.20;6.38;;;8.40;98.70;;;;;;5041622;28;20362;-50
2021/12/18 10:54:39;;;;;;;18.08;6.63;;;8.40;98.60;;;;;;5039366;28;20309;-50
2021/12/18 10:57:04;;;;;;;15.13;6.18;;;8.40;98.70;;;;;;5034820;28;20176;-51
2021/12/18 10:59:36;;;;;;;17.80;6.03;;;8.40;98.60;;;;;;5044452;28;20032;-50
2021/12/18 11:02:04;;;;;;;14.02;7.07;;;8.30;98.60;;;;;;5043086;28;20108;-51
2021/12/18 11:04:35;;;;;;;15.25;7.05;;;8.30;98.60;;;;;;5046212;28;20053;-50
2021/12/18 11:07:26;;;;;;;18.48;7.00;;;8.40;98.60;;;;;;5039073;28;20056;-50
2021/12/18 11:10:14;;;;;;;13.23;6.18;;;8.40;98.60;;;;;;5040460;28;20101;-50
2021/12/18 11:15:25;;;;;;;16.33;6.32;;;8.40;98.60;;;;;;5041547;28;20083;-51
2021/12/18 11:17:51;;;;;;;33.30;9.45;;;8.40;98.70;;;;;;5045469;28;20438;-50
2021/12/18 11:20:18;;;;;;;19.27;7.65;;;8.40;98.60;;;;;;5043034;28;20505;-50
2021/12/18 11:22:44;;;;;;;17.90;6.70;;;8.40;98.60;;;;;;5044671;28;20199;-50
2021/12/18 11:25:11;;;;;;;25.90;6.22;;;8.40;98.60;;;;;;5043199;28;20055;-51
2021/12/18 11:27:38;;;;;;;22.63;8.45;;;8.30;98.60;;;;;;5035910;28;20366;-50
2021/12/18 11:30:06;;;;;;;24.48;9.20;;;8.40;98.60;;;;;;5045583;28;20025;-50
2021/12/18 11:32:42;;;;;;;19.10;7.60;;;8.40;98.60;;;;;;5038577;28;20108;-50
2021/12/18 11:35:11;;;;;;;17.60;7.38;;;8.40;98.60;;;;;;5042923;28;20358;-50
2021/12/18 11:37:51;;;;;;;13.90;5.78;;;8.40;98.60;;;;;;5045520;28;20029;-50
2021/12/18 11:40:19;;;;;;;19.13;7.82;;;8.40;98.60;;;;;;5040654;28;20029;-50
2021/12/18 11:42:47;;;;;;;18.33;7.20;;;8.40;98.40;;;;;;5030307;28;20045;-50
2021/12/18 11:45:13;;;;;;;14.68;5.75;;;8.40;98.50;;;;;;5043928;28;20021;-50
2021/12/18 11:47:44;;;;;;;15.82;7.10;;;8.40;98.60;;;;;;5042165;28;20075;-50
2021/12/18 11:50:19;;;;;;;21.73;6.60;;;8.40;98.50;;;;;;5041143;28;20204;-50
2021/12/18 11:53:00;;;;;;;17.73;7.07;;;8.40;98.50;;;;;;5041692;28;20032;-50
2021/12/18 11:55:31;;;;;;;18.38;7.22;;;8.40;98.50;;;;;;5042409;28;20074;-50
2021/12/18 11:58:01;;;;;;;18.55;7.22;;;8.40;98.60;;;;;;5031609;28;20523;-50
2021/12/18 12:00:31;;;;;;;17.80;6.78;;;8.40;98.60;;;;;;5045003;28;20027;-50
2021/12/18 12:02:59;;;;;;;17.23;6.88;;;8.40;98.60;;;;;;5038957;28;20033;-50
2021/12/18 12:05:37;;;;;;;15.60;6.35;;;8.40;98.60;;;;;;5043365;28;20044;-50
2021/12/18 12:08:21;;;;;;;18.85;7.53;;;8.40;98.60;;;;;;5045237;28;20043;-50
2021/12/18 12:11:25;;;;;;;17.67;7.30;;;8.40;98.50;;;;;;5038563;28;20111;-50
2021/12/18 12:14:00;;;;;;;20.50;8.52;;;8.40;98.50;;;;;;5032755;28;20124;-50
2021/12/18 12:16:47;;;;;;;23.15;8.43;;;8.40;98.60;;;;;;5043110;28;20064;-50
2021/12/18 12:19:39;;;;;;;16.52;6.57;;;8.40;98.50;;;;;;5040232;28;20030;-50
2021/12/18 12:22:12;;;;;;;16.33;6.22;;;8.40;98.50;;;;;;5040866;28;20553;-50
2021/12/18 12:24:56;;;;;;;25.40;7.88;;;8.40;98.60;;;;;;5041567;28;20040;-50
2021/12/18 12:27:29;;;;;;;20.40;8.27;;;8.40;98.60;;;;;;5036631;28;20026;-50
2021/12/18 12:29:55;;;;;;;20.23;8.35;;;8.40;98.60;;;;;;5037122;28;20528;-49
2021/12/18 12:32:21;;;;;;;24.00;7.90;;;8.40;98.60;;;;;;5044223;28;20071;-50
2021/12/18 12:35:10;;;;;;;16.15;5.90;;;8.40;98.60;;;;;;5041307;28;20053;-50
2021/12/18 12:37:38;;;;;;;21.30;7.10;;;8.40;98.60;;;;;;5038412;28;20354;-50
2021/12/18 12:40:05;;;;;;;23.58;7.80;;;8.40;98.60;;;;;;5042809;28;20227;-50
2021/12/18 12:42:32;;;;;;;33.90;10.35;;;8.40;98.60;;;;;;5040796;28;20032;-51
2021/12/18 12:45:09;;;;;;;18.80;8.15;;;8.40;98.50;;;;;;5020977;28;20021;-50
2021/12/18 12:47:35;;;;;;;28.67;7.57;;;8.40;98.60;;;;;;5037676;28;20067;-50
2021/12/18 12:50:21;;;;;;;22.75;9.10;;;8.40;98.70;;;;;;5037475;28;20026;-50
2021/12/18 12:52:55;;;;;;;27.67;8.55;;;8.40;98.50;;;;;;5037164;28;20486;-50
2021/12/18 12:55:23;;;;;;;27.83;9.27;;;8.40;98.60;;;;;;5038306;28;20488;-50
2021/12/18 12:57:53;;;;;;;21.88;7.50;;;8.40;98.60;;;;;;5041242;28;20518;-50
2021/12/18 13:00:21;;;;;;;21.38;7.65;;;8.40;98.60;;;;;;5036697;28;20025;-50
2021/12/18 13:02:55;;;;;;;28.17;8.68;;;8.40;98.60;;;;;;5043331;28;20036;-49
2021/12/18 13:05:23;;;;;;;23.67;8.80;;;8.40;98.60;;;;;;5042404;28;20029;-51
2021/12/18 13:07:54;;;;;;;24.20;9.02;;;8.40;98.50;;;;;;5040905;28;20171;-50
2021/12/18 13:10:23;;;;;;;28.15;9.35;;;8.40;97.80;;;;;;5032819;28;20026;-50
2021/12/18 13:12:53;;;;;;;22.90;10.57;;;8.40;96.20;;;;;;5040917;28;20029;-51
2021/12/18 13:15:19;;;;;;;23.45;9.30;;;8.30;96.10;;;;;;5037824;28;20364;-50
2021/12/18 13:17:44;;;;;;;23.50;7.75;;;8.30;95.60;;;;;;5043522;28;20271;-50
2021/12/18 13:20:10;;;;;;;24.17;9.35;;;8.30;95.10;;;;;;5039769;28;20052;-50
2021/12/18 13:22:36;;;;;;;26.48;8.60;;;8.20;94.90;;;;;;5039156;28;20048;-50
2021/12/18 13:25:05;;;;;;;23.10;9.00;;;8.20;94.50;;;;;;5029178;28;20018;-50
2021/12/18 13:27:31;;;;;;;23.23;9.48;;;8.20;94.80;;;;;;5025591;28;20336;-50
2021/12/18 13:30:19;;;;;;;21.50;8.48;;;8.20;94.80;;;;;;5029284;28;20112;-50
2021/12/18 13:33:01;;;;;;;22.58;8.75;;;8.20;94.40;;;;;;5028465;28;20091;-50
2021/12/18 13:35:29;;;;;;;23.85;9.65;;;8.20;93.60;;;;;;5025395;28;20232;-50
2021/12/18 13:38:03;;;;;;;20.70;9.35;;;8.10;93.80;;;;;;5030353;28;20029;-51